Time;durP1;ratioP1;P1;durP2;ratioP2;P2;SDS_P1;SDS_P2;PMS_P1;PMS_P2;Temp;Humidity;BMP_temperature;BMP_pressure;BME280_temperature;BME280_humidity;BME280_pressure;Samples;Min_cycle;Max_cycle;Signal;HPM_P1;HPM_P2
2021/12/04 00:00:52;;;;;;;;;;;;;;;24.66;64.66;96486.97;603505;235;66855;-61
2021/12/04 00:03:21;;;;;;;;;;;;;;;24.66;65.02;96486.17;603353;235;63686;-61
2021/12/04 00:05:55;;;;;;;;;;;;;;;24.64;63.68;96488.40;603470;235;67356;-61
2021/12/04 00:08:18;;;;;;;;;;;;;;;24.65;64.76;96481.92;603322;235;65642;-61
2021/12/04 00:10:45;;;;;;;;;;;;;;;24.64;65.08;96483.03;603455;235;65003;-61
2021/12/04 00:13:13;;;;;;;;;;;;;;;24.64;65.65;96485.72;603462;235;64693;-61
2021/12/04 00:15:40;;;;;;;;;;;;;;;24.62;64.31;96483.32;603485;235;67076;-63
2021/12/04 00:18:08;;;;;;;;;;;;;;;24.61;65.77;96476.38;603453;235;65074;-63
2021/12/04 00:20:37;;;;;;;;;;;;;;;24.61;65.13;96491.67;603483;235;67096;-65
2021/12/04 00:23:04;;;;;;;;;;;;;;;24.58;65.06;96475.09;603460;235;66873;-63
2021/12/04 00:25:32;;;;;;;;;;;;;;;24.58;64.53;96475.09;603482;235;64994;-61
2021/12/04 00:28:00;;;;;;;;;;;;;;;24.58;66.12;96471.59;603457;235;64585;-63
2021/12/04 00:30:27;;;;;;;;;;;;;;;24.56;65.23;96474.59;603497;235;64430;-63
2021/12/04 00:33:05;;;;;;;;;;;;;;;24.55;65.24;96467.65;603486;235;65044;-63
2021/12/04 00:51:39;;;;;;;;;;;;;;;24.52;64.75;96500.47;603413;235;67272;-63
2021/12/04 00:54:09;;;;;;;;;;;;;;;24.53;65.25;96503.98;603542;235;64798;-63
2021/12/04 00:56:36;;;;;;;;;;;;;;;24.51;65.74;96498.89;603448;235;62999;-63
2021/12/04 00:59:04;;;;;;;;;;;;;;;24.49;65.40;96503.77;603516;235;66752;-63
2021/12/04 01:01:32;;;;;;;;;;;;;;;24.49;65.68;96503.77;603512;235;67094;-63
2021/12/04 01:03:59;;;;;;;;;;;;;;;24.50;65.52;96507.25;603470;235;65133;-63
2021/12/04 01:06:27;;;;;;;;;;;;;;;24.49;66.74;96506.45;603533;235;68285;-63
2021/12/04 01:08:55;;;;;;;;;;;;;;;24.47;65.69;96500.63;603503;235;67143;-63
2021/12/04 01:11:22;;;;;;;;;;;;;;;24.47;64.20;96500.63;603490;235;65137;-63
2021/12/04 01:13:50;;;;;;;;;;;;;;;24.48;65.11;96488.77;603502;235;67331;-63
2021/12/04 01:16:17;;;;;;;;;;;;;;;24.47;64.93;96497.94;603514;235;67038;-63
2021/12/04 01:18:45;;;;;;;;;;;;;;;24.46;65.02;96509.76;603472;235;64948;-61
2021/12/04 01:21:12;;;;;;;;;;;;;;;24.47;65.19;96505.17;603582;235;65003;-61
2021/12/04 01:23:40;;;;;;;;;;;;;;;24.46;64.90;96503.59;603484;235;64894;-61
2021/12/04 01:26:07;;;;;;;;;;;;;;;24.45;63.58;96499.34;603499;235;62900;-61
2021/12/04 01:28:35;;;;;;;;;;;;;;;24.46;66.01;96495.55;603488;235;67026;-61
2021/12/04 01:31:03;;;;;;;;;;;;;;;24.43;65.58;96494.23;603489;235;67024;-61
2021/12/04 01:33:30;;;;;;;;;;;;;;;24.42;65.98;96484.59;603520;235;64888;-61
2021/12/04 01:35:57;;;;;;;;;;;;;;;24.40;65.26;96484.10;603489;235;67303;-61
2021/12/04 01:38:25;;;;;;;;;;;;;;;24.41;65.98;96490.26;603421;235;67043;-61
2021/12/04 01:40:52;;;;;;;;;;;;;;;24.40;64.64;96476.05;603497;235;64874;-61
2021/12/04 01:43:20;;;;;;;;;;;;;;;24.41;65.36;96484.89;603537;235;67282;-63
2021/12/04 01:45:47;;;;;;;;;;;;;;;24.41;65.05;96482.20;603478;235;66681;-63
2021/12/04 01:48:15;;;;;;;;;;;;;;;24.40;65.61;96481.42;603477;235;65027;-63
2021/12/04 01:50:42;;;;;;;;;;;;;;;24.39;63.56;96487.89;603476;235;67288;-63
2021/12/04 01:53:10;;;;;;;;;;;;;;;24.38;64.07;96478.23;603422;235;65435;-63
2021/12/04 01:55:38;;;;;;;;;;;;;;;24.39;66.43;96466.41;603539;235;62998;-63
2021/12/04 01:58:06;;;;;;;;;;;;;;;24.37;64.88;96466.70;603480;235;67370;-63
2021/12/04 02:00:35;;;;;;;;;;;;;;;24.38;64.44;96465.59;603449;235;67102;-63
2021/12/04 02:03:04;;;;;;;;;;;;;;;24.37;65.29;96466.70;603481;235;64972;-63
2021/12/04 02:05:31;;;;;;;;;;;;;;;24.38;66.25;96464.80;603498;235;67360;-63
2021/12/04 02:07:59;;;;;;;;;;;;;;;24.37;63.70;96480.13;603528;235;66827;-63
2021/12/04 02:10:27;;;;;;;;;;;;;;;24.37;65.52;96473.97;603502;235;64995;-63
2021/12/04 02:12:54;;;;;;;;;;;;;;;24.36;68.46;96475.05;603459;235;64809;-63
2021/12/04 02:15:22;;;;;;;;;;;;;;;24.35;63.96;96460.84;603474;235;64768;-63
2021/12/04 02:17:49;;;;;;;;;;;;;;;24.35;67.47;96454.68;603448;235;65172;-63
2021/12/04 02:20:18;;;;;;;;;;;;;;;24.35;67.17;96457.36;603489;235;67776;-63
2021/12/04 02:22:46;;;;;;;;;;;;;;;24.35;65.48;96460.84;603536;235;64945;-63
2021/12/04 02:25:14;;;;;;;;;;;;;;;24.34;63.68;96459.27;603487;235;63005;-63
2021/12/04 02:27:42;;;;;;;;;;;;;;;24.34;65.42;96461.16;603456;235;65203;-64
2021/12/04 02:30:14;;;;;;;;;;;;;;;24.35;64.23;96476.16;603487;235;67081;-63
2021/12/04 02:32:42;;;;;;;;;;;;;;;24.33;64.33;96465.72;603484;235;64968;-64
2021/12/04 02:35:10;;;;;;;;;;;;;;;24.34;66.74;96463.84;603554;235;67270;-64
2021/12/04 02:37:39;;;;;;;;;;;;;;;24.32;64.38;96479.46;603499;235;67167;-64
2021/12/04 02:40:08;;;;;;;;;;;;;;;24.30;63.95;96477.07;603406;235;65025;-64
2021/12/04 02:42:36;;;;;;;;;;;;;;;24.32;66.65;96485.63;603459;235;67329;-60
2021/12/04 02:45:05;;;;;;;;;;;;;;;24.29;65.23;96488.13;603447;235;64790;-60
2021/12/04 02:47:33;;;;;;;;;;;;;;;24.28;65.66;96479.29;603483;235;65009;-60
2021/12/04 02:50:04;;;;;;;;;;;;;;;24.27;67.91;96469.63;603512;235;67204;-63
2021/12/04 02:52:29;;;;;;;;;;;;;;;24.27;65.54;96469.63;602883;235;67187;-63
2021/12/04 02:54:57;;;;;;;;;;;;;;;24.27;65.30;96460.78;603494;235;65194;-63
2021/12/04 02:57:25;;;;;;;;;;;;;;;24.26;67.84;96462.68;603479;235;67259;-62
2021/12/04 02:59:53;;;;;;;;;;;;;;;24.26;66.96;96468.05;603503;235;64632;-62
2021/12/04 03:02:22;;;;;;;;;;;;;;;24.24;66.26;96469.45;603526;235;65052;-62
2021/12/04 03:04:51;;;;;;;;;;;;;;;24.23;65.55;96467.88;603473;235;65105;-62
2021/12/04 03:07:20;;;;;;;;;;;;;;;24.24;67.33;96458.72;603330;235;65262;-63
2021/12/04 03:09:47;;;;;;;;;;;;;;;24.23;66.42;96454.45;603465;235;65115;-63
2021/12/04 03:12:16;;;;;;;;;;;;;;;24.20;67.49;96457.72;603468;235;67133;-63
2021/12/04 03:14:43;;;;;;;;;;;;;;;24.21;66.79;96470.06;603540;235;64881;-63
2021/12/04 03:17:11;;;;;;;;;;;;;;;24.20;64.60;96468.46;603474;235;63778;-62
2021/12/04 03:19:39;;;;;;;;;;;;;;;24.19;65.25;96472.26;603421;235;67086;-63
2021/12/04 03:22:08;;;;;;;;;;;;;;;24.17;64.35;96479.81;603512;235;67173;-63
2021/12/04 03:24:39;;;;;;;;;;;;;;;24.15;67.37;96478.23;603500;235;64849;-63
2021/12/04 03:27:05;;;;;;;;;;;;;;;24.15;66.17;96480.92;603381;235;67002;-61
2021/12/04 03:29:38;;;;;;;;;;;;;;;24.14;65.71;96470.47;603533;235;66951;-61
2021/12/04 03:42:56;;;;;;;;;;;;;;;24.10;65.82;96462.25;603482;235;67268;-64
2021/12/04 03:45:23;;;;;;;;;;;;;;;24.11;67.01;96471.09;603457;235;65039;-63
2021/12/04 03:47:53;;;;;;;;;;;;;;;24.08;66.18;96472.48;603494;235;62836;-62
2021/12/04 03:50:20;;;;;;;;;;;;;;;24.08;64.59;96475.17;603492;235;64802;-61
2021/12/04 03:52:47;;;;;;;;;;;;;;;24.07;65.60;96468.23;603012;235;64734;-62
2021/12/04 03:55:15;;;;;;;;;;;;;;;24.05;65.30;96473.09;602615;235;62562;-61
2021/12/04 03:57:45;;;;;;;;;;;;;;;24.06;64.64;96477.38;602645;235;64665;-61
2021/12/04 04:00:13;;;;;;;;;;;;;;;24.07;68.85;96481.64;602729;235;66771;-62
2021/12/04 04:02:40;;;;;;;;;;;;;;;24.06;65.94;96479.25;602703;235;64984;-62
2021/12/04 04:05:09;;;;;;;;;;;;;;;24.06;67.73;96479.25;602697;235;66988;-61
2021/12/04 04:07:36;;;;;;;;;;;;;;;24.05;65.50;96478.47;602703;235;66820;-61
2021/12/04 04:10:05;;;;;;;;;;;;;;;24.03;64.15;96475.28;602689;235;65024;-61
2021/12/04 04:12:32;;;;;;;;;;;;;;;24.04;66.87;96498.36;602706;235;67070;-61
2021/12/04 04:15:00;;;;;;;;;;;;;;;24.02;65.41;96508.59;602451;235;66724;-61
2021/12/04 04:17:31;;;;;;;;;;;;;;;24.03;67.14;96501.34;602678;235;65009;-61
2021/12/04 04:19:56;;;;;;;;;;;;;;;24.02;66.80;96500.55;602578;235;65214;-61
2021/12/04 04:22:24;;;;;;;;;;;;;;;24.01;66.26;96509.70;602377;235;65128;-61
2021/12/04 04:24:51;;;;;;;;;;;;;;;24.00;65.63;96513.47;602677;235;65059;-61
2021/12/04 04:27:19;;;;;;;;;;;;;;;24.00;67.76;96518.05;602733;235;67079;-61
2021/12/04 04:29:46;;;;;;;;;;;;;;;23.99;66.05;96530.68;602676;235;66932;-61
2021/12/04 04:32:14;;;;;;;;;;;;;;;23.99;67.48;96517.26;602672;235;65025;-61
2021/12/04 04:34:41;;;;;;;;;;;;;;;23.98;68.69;96515.69;602475;235;67087;-63
2021/12/04 04:40:24;;;;;;;;;;;;;;;23.96;69.64;96533.97;602730;235;62900;-65
2021/12/04 05:12:49;;;;;;;;;;;;;;;23.87;67.98;96543.81;603468;235;62825;-63
2021/12/04 05:15:20;;;;;;;;;;;;;;;23.85;68.16;96541.45;603351;235;67254;-63
2021/12/04 05:20:25;;;;;;;;;;;;;;;23.85;68.11;96528.03;603462;235;62943;-64
2021/12/04 05:22:49;;;;;;;;;;;;;;;23.84;68.35;96526.42;603309;235;67212;-64
2021/12/04 05:25:17;;;;;;;;;;;;;;;23.84;67.64;96536.36;603519;235;66823;-63
2021/12/04 05:27:44;;;;;;;;;;;;;;;23.83;68.06;96538.26;603474;235;65028;-63
2021/12/04 05:30:12;;;;;;;;;;;;;;;23.83;67.88;96540.94;603463;235;67117;-63
2021/12/04 05:32:39;;;;;;;;;;;;;;;23.83;67.65;96534.79;603483;235;66622;-63
2021/12/04 05:35:07;;;;;;;;;;;;;;;23.83;69.16;96534.79;603420;235;65078;-63
2021/12/04 05:37:35;;;;;;;;;;;;;;;23.83;67.02;96530.20;603497;235;67277;-63
2021/12/04 05:40:02;;;;;;;;;;;;;;;23.83;69.13;96532.89;603410;235;67203;-63
2021/12/04 05:42:30;;;;;;;;;;;;;;;23.80;67.46;96541.55;603451;235;65228;-63
2021/12/04 05:44:58;;;;;;;;;;;;;;;23.82;68.75;96541.26;603462;235;67233;-64
2021/12/04 05:47:33;;;;;;;;;;;;;;;23.80;67.50;96540.76;603492;235;64715;-63
2021/12/04 05:50:11;;;;;;;;;;;;;;;23.79;68.54;96534.60;603172;235;63827;-64
2021/12/04 05:52:49;;;;;;;;;;;;;;;23.79;67.78;96539.15;602593;235;65066;-64
2021/12/04 05:55:13;;;;;;;;;;;;;;;23.77;68.05;96541.36;602117;235;65319;-63
2021/12/04 05:57:40;;;;;;;;;;;;;;;23.77;68.90;96544.05;602702;235;65111;-64
2021/12/04 06:00:09;;;;;;;;;;;;;;;23.76;68.06;96537.07;602654;235;66958;-62
2021/12/04 06:02:37;;;;;;;;;;;;;;;23.74;67.69;96537.39;602686;235;65015;-62
2021/12/04 06:05:05;;;;;;;;;;;;;;;23.73;67.41;96538.47;602711;235;62790;-62
2021/12/04 06:07:32;;;;;;;;;;;;;;;23.75;68.48;96546.23;602731;235;67552;-62
2021/12/04 06:10:00;;;;;;;;;;;;;;;23.73;67.92;96553.77;602722;235;67086;-62
2021/12/04 06:12:27;;;;;;;;;;;;;;;23.73;68.47;96541.14;602633;235;65057;-62
2021/12/04 06:14:55;;;;;;;;;;;;;;;23.73;68.60;96549.20;602709;235;67229;-61
2021/12/04 06:17:24;;;;;;;;;;;;;;;23.73;68.73;96553.77;602686;235;64651;-61
2021/12/04 06:22:40;;;;;;;;;;;;;;;23.71;68.84;96564.82;602707;235;67280;-63
2021/12/04 06:25:15;;;;;;;;;;;;;;;23.68;68.10;96566.18;602609;235;66842;-63
2021/12/04 06:27:43;;;;;;;;;;;;;;;23.69;68.06;96567.76;602646;235;62727;-61
2021/12/04 06:30:12;;;;;;;;;;;;;;;23.68;68.39;96571.55;602653;235;65065;-61
2021/12/04 06:32:40;;;;;;;;;;;;;;;23.68;68.23;96578.77;602653;235;65024;-62
2021/12/04 06:35:09;;;;;;;;;;;;;;;23.66;67.33;96576.41;602742;233;64890;-63
2021/12/04 06:37:39;;;;;;;;;;;;;;;23.68;67.90;96574.23;602680;235;67185;-61
2021/12/04 06:40:08;;;;;;;;;;;;;;;23.69;68.84;96583.06;602232;235;64969;-62
2021/12/04 06:42:36;;;;;;;;;;;;;;;23.67;67.81;96579.88;602686;235;65071;-64
2021/12/04 06:45:03;;;;;;;;;;;;;;;23.68;68.44;96584.95;602701;235;67287;-64
2021/12/04 06:47:32;;;;;;;;;;;;;;;23.67;68.30;96580.67;602626;235;66667;-63
2021/12/04 06:50:06;;;;;;;;;;;;;;;23.68;68.76;96576.09;601799;235;64850;-63
2021/12/04 06:52:29;;;;;;;;;;;;;;;23.65;67.87;96572.14;601975;235;67316;-64
2021/12/04 06:55:01;;;;;;;;;;;;;;;23.66;68.83;96573.73;603026;235;65161;-63
2021/12/04 06:57:37;;;;;;;;;;;;;;;23.65;68.54;96579.37;602757;235;62821;-64
2021/12/04 07:00:05;;;;;;;;;;;;;;;23.65;67.27;96579.37;603095;235;47034;-70
2021/12/04 07:02:33;;;;;;;;;;;;;;;23.65;68.71;96580.19;602212;235;67119;-73
2021/12/04 07:05:03;;;;;;;;;;;;;;;23.63;67.50;96582.38;602787;235;45024;-67
2021/12/04 07:07:30;;;;;;;;;;;;;;;23.61;67.22;96581.87;602787;235;64947;-66
2021/12/04 07:10:00;;;;;;;;;;;;;;;23.62;68.54;96580.77;602986;235;66881;-63
2021/12/04 07:12:27;;;;;;;;;;;;;;;23.61;67.72;96575.71;603215;235;65019;-63
2021/12/04 07:14:55;;;;;;;;;;;;;;;23.63;69.28;96577.01;603405;235;67056;-63
2021/12/04 07:17:22;;;;;;;;;;;;;;;23.63;69.36;96574.33;603295;235;67739;-66
2021/12/04 07:19:50;;;;;;;;;;;;;;;23.61;68.94;96573.82;602910;235;65276;-63
2021/12/04 07:22:17;;;;;;;;;;;;;;;23.63;69.62;96568.17;602895;235;67451;-63
2021/12/04 07:24:45;;;;;;;;;;;;;;;23.60;68.38;96564.20;603226;235;66937;-64
2021/12/04 07:27:13;;;;;;;;;;;;;;;23.60;68.40;96569.56;603414;235;63028;-66
2021/12/04 07:29:40;;;;;;;;;;;;;;;23.60;68.49;96569.56;603178;235;67263;-65
2021/12/04 07:32:08;;;;;;;;;;;;;;;23.65;66.97;96572.14;602892;235;66897;-63
2021/12/04 07:34:38;;;;;;;;;;;;;;;23.68;69.58;96574.23;603404;235;65056;-63
2021/12/04 07:37:05;;;;;;;;;;;;;;;23.69;70.73;96570.44;603045;235;67090;-63
2021/12/04 07:39:33;;;;;;;;;;;;;;;23.67;71.00;96569.15;603322;235;64567;-65
2021/12/04 07:42:00;;;;;;;;;;;;;;;23.67;71.02;96577.98;603169;235;63117;-65
2021/12/04 07:44:28;;;;;;;;;;;;;;;23.66;70.34;96573.73;603326;235;64620;-65
2021/12/04 07:46:55;;;;;;;;;;;;;;;23.67;71.76;96563.78;602961;235;64781;-70
2021/12/04 07:49:23;;;;;;;;;;;;;;;23.67;70.55;96564.57;602532;235;65047;-64
2021/12/04 07:51:51;;;;;;;;;;;;;;;23.70;68.02;96563.18;602766;235;67060;-65
2021/12/04 07:54:20;;;;;;;;;;;;;;;23.75;64.96;96562.33;599863;236;66789;-63
2021/12/04 07:56:48;;;;;;;;;;;;;;;23.83;65.37;96554.36;599808;236;65104;-65
2021/12/04 07:59:15;;;;;;;;;;;;;;;23.89;63.64;96555.83;599817;236;65006;-63
2021/12/04 08:01:43;;;;;;;;;;;;;;;23.97;64.80;96562.39;599908;236;64379;-63
2021/12/04 08:04:10;;;;;;;;;;;;;;;23.98;64.67;96572.05;599821;236;63008;-63
2021/12/04 08:06:38;;;;;;;;;;;;;;;24.01;62.92;96568.76;599825;236;64721;-64
2021/12/04 08:09:05;;;;;;;;;;;;;;;24.03;61.22;96571.91;599741;236;66871;-63
2021/12/04 08:11:33;;;;;;;;;;;;;;;24.06;61.46;96562.47;599850;236;65128;-66
2021/12/04 08:14:01;;;;;;;;;;;;;;;24.09;60.31;96565.36;599885;236;67745;-63
2021/12/04 08:16:28;;;;;;;;;;;;;;;24.11;61.38;96568.52;599899;236;66798;-63
2021/12/04 08:18:56;;;;;;;;;;;;;;;24.12;60.29;96564.75;599816;236;65214;-63
2021/12/04 08:21:23;;;;;;;;;;;;;;;24.14;60.13;96561.75;599865;236;66958;-63
2021/12/04 08:23:50;;;;;;;;;;;;;;;24.17;60.82;96563.04;599831;236;66973;-64
2021/12/04 08:26:18;;;;;;;;;;;;;;;24.18;59.99;96556.59;599886;236;65059;-64
2021/12/04 08:28:47;;;;;;;;;;;;;;;24.17;60.24;96555.77;599876;236;66820;-64
2021/12/04 08:31:15;;;;;;;;;;;;;;;24.07;61.76;96554.13;599785;236;64916;-64
2021/12/04 08:33:42;;;;;;;;;;;;;;;24.05;62.64;96545.56;599749;236;62943;-64
2021/12/04 08:36:10;;;;;;;;;;;;;;;24.02;64.64;96538.13;599815;236;67505;-64
2021/12/04 08:38:38;;;;;;;;;;;;;;;24.03;62.57;96534.33;599750;236;66799;-65
2021/12/04 08:41:06;;;;;;;;;;;;;;;24.06;62.32;96527.56;599802;236;62821;-64
2021/12/04 08:43:33;;;;;;;;;;;;;;;24.10;62.72;96517.83;599844;236;64937;-64
2021/12/04 08:46:01;;;;;;;;;;;;;;;24.17;61.78;96515.50;599856;236;64732;-63
2021/12/04 08:48:31;;;;;;;;;;;;;;;24.20;61.17;96498.00;599805;236;65196;-66
2021/12/04 08:50:59;;;;;;;;;;;;;;;24.20;60.42;96492.63;599766;236;65895;-65
2021/12/04 08:53:27;;;;;;;;;;;;;;;24.21;60.66;96488.86;599845;235;64982;-64
2021/12/04 08:55:58;;;;;;;;;;;;;;;24.20;61.75;96480.02;599757;236;62889;-67
2021/12/04 08:58:25;;;;;;;;;;;;;;;24.24;61.08;96474.83;599841;236;65163;-67
2021/12/04 09:00:54;;;;;;;;;;;;;;;24.21;60.28;96475.44;599763;236;64929;-67
2021/12/04 09:03:23;;;;;;;;;;;;;;;24.21;60.85;96472.75;599786;236;63810;-66
2021/12/04 09:05:50;;;;;;;;;;;;;;;24.20;61.49;96463.09;599917;236;67215;-67
2021/12/04 09:08:19;;;;;;;;;;;;;;;24.17;62.84;96452.97;599821;236;66801;-67
2021/12/04 09:10:47;;;;;;;;;;;;;;;24.14;62.46;96444.45;599822;236;62753;-66
2021/12/04 09:13:15;;;;;;;;;;;;;;;24.17;61.38;96434.17;599798;236;67343;-67
2021/12/04 09:15:44;;;;;;;;;;;;;;;24.16;62.94;96430.70;599807;236;66800;-67
2021/12/04 09:18:11;;;;;;;;;;;;;;;24.13;63.04;96417.89;599790;236;65097;-67
2021/12/04 09:20:39;;;;;;;;;;;;;;;24.11;64.32;96412.03;599047;236;64368;-67
2021/12/04 09:23:14;;;;;;;;;;;;;;;24.12;63.99;96410.95;599787;236;67276;-67
2021/12/04 09:25:39;;;;;;;;;;;;;;;24.13;62.14;96416.00;599697;236;62962;-67
2021/12/04 09:28:21;;;;;;;;;;;;;;;24.12;63.94;96405.58;599827;236;65636;-66
2021/12/04 10:01:14;;;;;;;;;;;;;;;24.24;60.28;96415.75;605064;234;65118;-63
2021/12/04 10:14:55;;;;;;;;;;;;;;;24.26;60.38;96413.56;583214;240;65266;-64
2021/12/04 10:25:14;;;;;;;;;;;;;;;24.28;58.62;96411.34;605147;234;67016;-63
2021/12/04 10:32:23;;;;;;;;;;;;;;;24.29;59.37;96412.95;591381;234;62898;-63
2021/12/04 10:32:55;;;;;;;;;;;;;;;24.28;61.55;96414.03;604144;234;67230;-63
2021/12/04 10:35:17;;;;;;;;;;;;;;;24.28;59.38;96414.03;604961;234;64743;-65
2021/12/04 10:37:46;;;;;;;;;;;;;;;24.27;59.92;96415.92;605162;234;65269;-63
2021/12/04 10:40:14;;;;;;;;;;;;;;;24.29;59.76;96412.95;605228;234;65123;-63
2021/12/04 10:42:44;;;;;;;;;;;;;;;24.29;60.84;96412.95;605196;234;67370;-62
2021/12/04 10:45:12;;;;;;;;;;;;;;;24.28;61.61;96422.08;605221;234;65039;-62
2021/12/04 10:47:41;;;;;;;;;;;;;;;24.27;60.51;96432.03;605146;234;67221;-62
2021/12/04 10:52:58;;;;;;;;;;;;;;;24.28;60.69;96438.19;606922;233;65011;-62
2021/12/04 10:55:26;;;;;;;;;;;;;;;24.28;61.45;96447.06;608426;233;70028;-62
2021/12/04 11:00:44;;;;;;;;;;;;;;;24.27;58.69;96448.15;608347;233;62830;-63
2021/12/04 11:04:04;;;;;;;;;;;;;;;24.27;61.23;96455.41;608575;233;64734;-64
2021/12/04 11:06:04;;;;;;;;;;;;;;;24.27;62.18;96453.52;602273;233;67408;-63
2021/12/04 11:28:44;;;;;;;;;;;;;;;24.26;63.33;96433.14;608547;233;67612;-66
2021/12/04 11:44:07;;;;;;;;;;;;;;;24.26;62.90;96392.88;608673;233;67140;-66
2021/12/04 11:46:28;;;;;;;;;;;;;;;24.27;63.33;96375.65;607787;233;64385;-66
2021/12/04 11:48:51;;;;;;;;;;;;;;;24.27;63.02;96372.97;608370;233;63196;-67
2021/12/04 11:51:20;;;;;;;;;;;;;;;24.28;62.75;96368.38;602666;233;67107;-67
2021/12/04 11:53:48;;;;;;;;;;;;;;;24.27;62.33;96383.70;608611;233;66785;-67
2021/12/04 11:56:17;;;;;;;;;;;;;;;24.28;63.59;96385.31;608603;233;62886;-67
2021/12/04 11:58:46;;;;;;;;;;;;;;;24.28;62.90;96379.13;608653;233;64661;-67
2021/12/04 12:01:28;;;;;;;;;;;;;;;24.28;61.95;96382.63;608583;233;64984;-66
2021/12/04 12:03:55;;;;;;;;;;;;;;;24.29;63.06;96386.09;608477;233;64919;-67
2021/12/04 12:06:25;;;;;;;;;;;;;;;24.30;62.56;96377.72;608564;233;66901;-67
2021/12/04 12:08:53;;;;;;;;;;;;;;;24.29;63.26;96373.45;607546;233;66930;-66
2021/12/04 12:11:24;;;;;;;;;;;;;;;24.30;63.04;96372.34;608344;233;65079;-67
2021/12/04 12:13:53;;;;;;;;;;;;;;;24.30;62.96;96379.61;608525;233;64886;-67
2021/12/04 12:16:25;;;;;;;;;;;;;;;24.29;64.32;96368.09;608399;233;66838;-67
2021/12/04 12:18:56;;;;;;;;;;;;;;;24.29;62.67;96364.61;608602;233;62890;-67
2021/12/04 12:21:29;;;;;;;;;;;;;;;24.29;62.66;96359.25;608552;233;64418;-67
2021/12/04 12:32:35;;;;;;;;;;;;;;;24.26;62.06;96370.60;608588;233;66884;-64
2021/12/04 12:37:24;;;;;;;;;;;;;;;24.29;62.34;96368.09;608169;233;66907;-65
2021/12/04 12:39:56;;;;;;;;;;;;;;;24.30;62.16;96372.34;607473;233;66815;-65
2021/12/04 12:42:25;;;;;;;;;;;;;;;24.29;61.98;96376.14;608132;233;65193;-65
2021/12/04 12:44:53;;;;;;;;;;;;;;;24.30;62.84;96375.03;608688;233;67280;-64
2021/12/04 12:47:21;;;;;;;;;;;;;;;24.31;62.34;96383.91;608609;233;66965;-65
2021/12/04 12:49:49;;;;;;;;;;;;;;;24.29;62.40;96381.52;608607;233;63041;-64
2021/12/04 12:52:18;;;;;;;;;;;;;;;24.31;62.53;96383.91;608617;233;65138;-64
2021/12/04 12:54:53;;;;;;;;;;;;;;;24.30;63.65;96387.67;608583;233;66902;-63
2021/12/04 12:57:23;;;;;;;;;;;;;;;24.29;64.25;96378.04;608728;233;62883;-64
2021/12/04 13:14:12;;;;;;;;;;;;;;;24.32;63.59;96407.75;608681;233;63055;-64
2021/12/04 13:16:42;;;;;;;;;;;;;;;24.32;63.69;96412.33;608652;233;64939;-65
2021/12/04 13:19:12;;;;;;;;;;;;;;;24.31;63.64;96410.76;608185;233;65370;-64
2021/12/04 13:21:41;;;;;;;;;;;;;;;24.31;62.96;96413.44;608568;233;63155;-65
2021/12/04 13:24:12;;;;;;;;;;;;;;;24.32;63.92;96412.33;608678;233;67228;-69
2021/12/04 13:26:41;;;;;;;;;;;;;;;24.31;62.53;96408.86;608666;233;67820;-70
2021/12/04 13:29:10;;;;;;;;;;;;;;;24.28;63.15;96403.28;608569;233;64927;-70
2021/12/04 13:31:38;;;;;;;;;;;;;;;24.26;62.81;96405.51;607818;233;64948;-68
2021/12/04 13:34:07;;;;;;;;;;;;;;;24.25;64.20;96410.06;608349;233;66856;-68
2021/12/04 13:36:35;;;;;;;;;;;;;;;24.20;65.48;96412.08;608457;233;62722;-68
2021/12/04 13:39:04;;;;;;;;;;;;;;;24.19;64.76;96413.19;608414;233;64738;-68
2021/12/04 13:41:32;;;;;;;;;;;;;;;24.19;64.37;96415.88;608462;233;64618;-68
2021/12/04 13:44:01;;;;;;;;;;;;;;;24.18;66.24;96423.14;608456;233;62994;-68
2021/12/04 13:46:29;;;;;;;;;;;;;;;24.17;65.45;96416.17;608517;233;67367;-68
2021/12/04 13:49:00;;;;;;;;;;;;;;;24.18;65.08;96414.30;608363;233;67089;-68
2021/12/04 13:51:27;;;;;;;;;;;;;;;24.19;64.73;96418.56;608475;233;65117;-68
2021/12/04 13:53:55;;;;;;;;;;;;;;;24.21;65.49;96419.05;608438;233;67264;-68
2021/12/04 13:56:23;;;;;;;;;;;;;;;24.22;65.30;96426.00;608406;233;67034;-68
2021/12/04 13:58:56;;;;;;;;;;;;;;;24.24;64.78;96432.66;608460;233;63044;-68
2021/12/04 14:01:24;;;;;;;;;;;;;;;24.26;63.70;96435.05;608427;233;68011;-68
2021/12/04 14:03:56;;;;;;;;;;;;;;;24.27;63.83;96440.09;608473;233;64887;-68
2021/12/04 14:06:24;;;;;;;;;;;;;;;24.29;62.50;96453.22;608334;233;65058;-68
2021/12/04 14:09:03;;;;;;;;;;;;;;;24.29;61.74;96445.95;608410;233;67116;-68
2021/12/04 14:11:32;;;;;;;;;;;;;;;24.32;63.36;96439.19;608236;233;66832;-68
2021/12/04 14:14:01;;;;;;;;;;;;;;;24.35;61.43;96433.20;608219;233;65015;-68
2021/12/04 14:16:29;;;;;;;;;;;;;;;24.37;60.70;96436.38;608152;233;67065;-68
2021/12/04 14:18:56;;;;;;;;;;;;;;;24.40;59.42;96433.08;608298;233;67016;-68
2021/12/04 14:21:24;;;;;;;;;;;;;;;24.42;59.14;96430.88;608568;233;65067;-68
2021/12/04 14:23:51;;;;;;;;;;;;;;;24.43;59.55;96429.77;608608;233;67151;-68
2021/12/04 14:26:19;;;;;;;;;;;;;;;24.46;57.96;96429.19;608527;233;66844;-68
2021/12/04 14:28:46;;;;;;;;;;;;;;;24.48;58.22;96418.93;608703;233;64968;-68
2021/12/04 14:31:15;;;;;;;;;;;;;;;24.50;58.13;96403.31;608641;233;67253;-68
2021/12/04 14:33:44;;;;;;;;;;;;;;;24.52;58.15;96406.45;608494;233;67372;-68
2021/12/04 14:36:12;;;;;;;;;;;;;;;24.53;57.46;96402.69;608453;233;65063;-68
2021/12/04 14:38:42;;;;;;;;;;;;;;;24.56;58.06;96410.13;602624;233;64065;-68
2021/12/04 14:41:10;;;;;;;;;;;;;;;24.57;57.50;96400.95;608603;233;65599;-68
2021/12/04 14:43:39;;;;;;;;;;;;;;;24.57;57.88;96403.64;608638;233;63869;-68
2021/12/04 14:46:09;;;;;;;;;;;;;;;24.59;58.06;96404.13;607966;233;67400;-68
2021/12/04 14:48:38;;;;;;;;;;;;;;;24.61;57.71;96405.70;608623;233;67011;-68
2021/12/04 14:51:07;;;;;;;;;;;;;;;24.62;57.61;96393.88;608099;233;64042;-68
2021/12/04 14:53:35;;;;;;;;;;;;;;;24.64;57.26;96402.43;608676;233;67653;-68
2021/12/04 14:56:07;;;;;;;;;;;;;;;24.64;57.45;96394.37;608673;233;67083;-68
2021/12/04 14:58:35;;;;;;;;;;;;;;;24.65;57.20;96395.94;608639;233;64871;-68
2021/12/04 15:01:04;;;;;;;;;;;;;;;24.68;57.66;96403.37;608658;233;67390;-68
2021/12/04 15:03:36;;;;;;;;;;;;;;;24.68;57.38;96396.11;608336;233;67038;-68
2021/12/04 15:06:08;;;;;;;;;;;;;;;24.69;57.40;96394.20;608244;233;65802;-68
2021/12/04 15:08:39;;;;;;;;;;;;;;;24.70;57.53;96407.34;608316;233;64767;-68
2021/12/04 15:11:11;;;;;;;;;;;;;;;24.70;57.09;96403.87;608423;233;66010;-68
2021/12/04 15:13:45;;;;;;;;;;;;;;;24.70;57.61;96398.50;608177;233;62732;-68
2021/12/04 15:16:13;;;;;;;;;;;;;;;24.72;57.96;96393.61;608111;233;67100;-68
2021/12/04 15:18:39;;;;;;;;;;;;;;;24.72;57.14;96396.30;608241;233;67187;-68
2021/12/04 15:21:11;;;;;;;;;;;;;;;24.73;57.04;96390.59;608395;233;63033;-68
2021/12/04 15:23:39;;;;;;;;;;;;;;;24.74;57.37;96394.08;608448;233;67243;-68
2021/12/04 15:26:08;;;;;;;;;;;;;;;24.75;57.34;96390.30;608429;233;64993;-68
2021/12/04 15:28:36;;;;;;;;;;;;;;;24.76;57.80;96389.19;608297;233;63658;-68
2021/12/04 15:31:04;;;;;;;;;;;;;;;24.77;57.20;96393.45;608501;233;65996;-68
2021/12/04 15:33:39;;;;;;;;;;;;;;;24.79;58.04;96393.94;608622;233;67102;-68
2021/12/04 15:36:11;;;;;;;;;;;;;;;24.80;57.22;96390.17;608589;233;65079;-68
2021/12/04 15:38:44;;;;;;;;;;;;;;;24.81;57.49;96391.73;608547;233;67239;-59
2021/12/04 15:44:02;;;;;;;;;;;;;;;24.78;56.75;96397.73;608656;233;62967;-63
2021/12/04 15:54:14;;;;;;;;;;;;;;;24.77;56.89;96406.88;608235;233;67180;-63
2021/12/04 15:56:44;;;;;;;;;;;;;;;24.79;56.89;96404.69;608154;233;67088;-63
2021/12/04 15:59:21;;;;;;;;;;;;;;;24.82;57.01;96409.44;608239;233;65084;-63
2021/12/04 16:01:52;;;;;;;;;;;;;;;24.82;56.96;96417.50;608452;233;67337;-63
2021/12/04 16:04:29;;;;;;;;;;;;;;;24.83;56.83;96410.23;608616;233;64898;-63
2021/12/04 16:06:58;;;;;;;;;;;;;;;24.83;56.92;96408.36;608668;233;65573;-63